TimeMST,TemperatureF,Dew PointF,Humidity,Sea Level PressureIn,VisibilityMPH,Wind Direction,Wind SpeedMPH,Gust SpeedMPH,PrecipitationIn,Events,Conditions,WindDirDegrees,DateUTC
12:15 AM,41.0,22.8,48,29.90,10.0,Calm,Calm,-,N/A,,Overcast,0,2012-12-03 07:15:00
12:35 AM,40.3,27.9,61,29.90,10.0,NNE,3.5,-,N/A,,Overcast,30,2012-12-03 07:35:00
12:55 AM,39.4,27.0,61,29.90,10.0,ESE,5.8,-,N/A,,Overcast,110,2012-12-03 07:55:00
1:15 AM,41.2,28.2,60,29.89,10.0,Calm,Calm,-,N/A,,Overcast,0,2012-12-03 08:15:00
1:35 AM,38.7,32.2,78,29.94,10.0,West,18.4,29.9,N/A,,Overcast,270,2012-12-03 08:35:00
1:55 AM,35.8,30.6,81,29.97,7.0,WNW,25.3,36.8,N/A,,Overcast,290,2012-12-03 08:55:00
2:15 AM,34.7,30.4,84,30.00,7.0,West,12.7,17.3,N/A,,Overcast,270,2012-12-03 09:15:00
2:35 AM,33.1,31.8,95,30.02,1.5,West,8.1,-,N/A,,Overcast,260,2012-12-03 09:35:00
2:55 AM,32.0,32.0,100,30.02,1.2,SSW,6.9,-,N/A,,Overcast,210,2012-12-03 09:55:00
3:15 AM,32.0,32.0,100,30.04,1.5,SW,3.5,-,N/A,,Overcast,230,2012-12-03 10:15:00
3:35 AM,32.0,31.6,99,30.03,1.0,SSW,6.9,-,N/A,,Overcast,210,2012-12-03 10:35:00
3:55 AM,31.8,31.6,99,30.05,1.5,WSW,15.0,-,N/A,,Overcast,240,2012-12-03 10:55:00
4:15 AM,31.8,31.5,99,30.06,4.0,SW,5.8,-,N/A,,Overcast,230,2012-12-03 11:15:00
4:35 AM,31.6,31.1,98,30.08,5.0,Calm,Calm,-,N/A,,Overcast,0,2012-12-03 11:35:00
4:55 AM,31.6,31.1,98,30.08,4.0,East,3.5,-,N/A,,Overcast,100,2012-12-03 11:55:00
5:15 AM,31.5,30.9,98,30.11,5.0,Calm,Calm,-,N/A,,Overcast,0,2012-12-03 12:15:00
5:35 AM,31.6,30.9,97,30.12,3.0,Calm,Calm,-,N/A,,Overcast,0,2012-12-03 12:35:00
6:15 AM,29.3,29.1,99,30.14,10.0,Calm,Calm,-,N/A,,Mostly Cloudy,0,2012-12-03 13:15:00
6:35 AM,30.2,29.7,98,30.14,10.0,Calm,Calm,-,N/A,,Scattered Clouds,0,2012-12-03 13:35:00
6:55 AM,28.0,27.5,98,30.15,2.5,Calm,Calm,-,N/A,,Scattered Clouds,0,2012-12-03 13:55:00
7:15 AM,29.3,29.1,99,30.15,10.0,Calm,Calm,-,N/A,,Mostly Cloudy,0,2012-12-03 14:15:00
7:35 AM,29.1,28.6,98,30.16,10.0,Calm,Calm,-,N/A,,Mostly Cloudy,0,2012-12-03 14:35:00
7:55 AM,28.0,27.0,96,30.15,10.0,Calm,Calm,-,N/A,,Clear,0,2012-12-03 14:55:00
8:15 AM,28.6,27.9,97,30.16,10.0,Calm,Calm,-,N/A,,Scattered Clouds,0,2012-12-03 15:15:00
8:35 AM,31.1,28.0,88,30.16,10.0,Calm,Calm,-,N/A,,Mostly Cloudy,0,2012-12-03 15:35:00
9:15 AM,32.0,26.4,80,30.16,10.0,Calm,Calm,-,N/A,,Clear,0,2012-12-03 16:15:00
9:35 AM,32.0,25.9,78,30.16,10.0,Calm,Calm,-,N/A,,Clear,0,2012-12-03 16:35:00
9:55 AM,32.0,26.4,80,30.17,10.0,Calm,Calm,-,N/A,,Clear,0,2012-12-03 16:55:00
10:15 AM,32.4,27.0,80,30.18,10.0,Calm,Calm,-,N/A,,Scattered Clouds,0,2012-12-03 17:15:00
10:35 AM,32.9,27.1,79,30.18,10.0,Calm,Calm,-,N/A,,Mostly Cloudy,0,2012-12-03 17:35:00
10:55 AM,34.2,27.0,75,30.17,10.0,Calm,Calm,-,N/A,,Scattered Clouds,0,2012-12-03 17:55:00
11:15 AM,33.8,25.3,71,30.16,10.0,Calm,Calm,-,N/A,,Scattered Clouds,0,2012-12-03 18:15:00
11:35 AM,33.6,21.6,61,30.16,10.0,Calm,Calm,-,N/A,,Clear,0,2012-12-03 18:35:00
12:15 PM,35.1,21.0,57,30.16,10.0,Calm,Calm,-,N/A,,Clear,0,2012-12-03 19:15:00
12:35 PM,35.8,19.4,51,30.17,10.0,Calm,Calm,-,N/A,,Clear,0,2012-12-03 19:35:00
12:55 PM,35.8,17.6,48,30.18,10.0,South,3.5,-,N/A,,Clear,190,2012-12-03 19:55:00
1:15 PM,35.1,17.2,48,30.18,10.0,Calm,Calm,-,N/A,,Clear,0,2012-12-03 20:15:00
1:35 PM,35.4,18.1,49,30.19,10.0,Calm,Calm,-,N/A,,Clear,0,2012-12-03 20:35:00
1:55 PM,36.0,15.1,43,30.19,10.0,Calm,Calm,-,N/A,,Clear,0,2012-12-03 20:55:00
2:15 PM,37.0,16.0,42,30.19,10.0,Calm,Calm,-,N/A,,Clear,0,2012-12-03 21:15:00
2:35 PM,36.9,15.3,41,30.20,10.0,Calm,Calm,-,N/A,,Clear,0,2012-12-03 21:35:00
2:55 PM,36.7,16.5,44,30.18,10.0,Calm,Calm,-,N/A,,Clear,0,2012-12-03 21:55:00
3:15 PM,35.4,16.0,45,30.19,10.0,Calm,Calm,-,N/A,,Clear,0,2012-12-03 22:15:00
3:35 PM,35.1,16.0,46,30.19,10.0,Calm,Calm,-,N/A,,Clear,0,2012-12-03 22:35:00
3:55 PM,33.8,16.5,49,30.20,10.0,Calm,Calm,-,N/A,,Clear,0,2012-12-03 22:55:00
4:15 PM,32.9,16.0,50,30.21,10.0,Calm,Calm,-,N/A,,Clear,0,2012-12-03 23:15:00
4:35 PM,32.9,15.8,49,30.22,10.0,Calm,Calm,-,N/A,,Clear,0,2012-12-03 23:35:00
4:55 PM,31.1,18.1,59,30.22,10.0,Calm,Calm,-,N/A,,Clear,0,2012-12-03 23:55:00
5:15 PM,29.3,18.1,63,30.23,10.0,Calm,Calm,-,N/A,,Clear,0,2012-12-04 00:15:00
5:35 PM,28.9,18.0,64,30.23,10.0,Calm,Calm,-,N/A,,Clear,0,2012-12-04 00:35:00
5:55 PM,27.3,18.1,68,30.24,10.0,Calm,Calm,-,N/A,,Clear,0,2012-12-04 00:55:00
6:15 PM,28.0,17.6,65,30.23,10.0,Calm,Calm,-,N/A,,Clear,0,2012-12-04 01:15:00
6:35 PM,25.2,17.6,73,30.26,10.0,Calm,Calm,-,N/A,,Clear,0,2012-12-04 01:35:00
6:55 PM,25.3,18.7,76,30.26,10.0,ENE,3.5,-,N/A,,Clear,70,2012-12-04 01:55:00
7:15 PM,23.4,17.2,77,30.26,10.0,SE,3.5,-,N/A,,Clear,140,2012-12-04 02:15:00
7:35 PM,22.6,17.1,79,30.28,10.0,Calm,Calm,-,N/A,,Clear,0,2012-12-04 02:35:00
7:55 PM,23.0,18.0,81,30.28,10.0,Calm,Calm,-,N/A,,Clear,0,2012-12-04 02:55:00
8:15 PM,23.2,17.4,79,30.29,10.0,Calm,Calm,-,N/A,,Clear,0,2012-12-04 03:15:00
8:35 PM,22.6,17.2,80,30.29,10.0,Calm,Calm,-,N/A,,Clear,0,2012-12-04 03:35:00
8:55 PM,21.2,15.4,78,30.30,10.0,Calm,Calm,-,N/A,,Clear,0,2012-12-04 03:55:00
9:15 PM,22.6,15.4,74,30.30,10.0,ESE,4.6,-,N/A,,Clear,110,2012-12-04 04:15:00
9:35 PM,21.2,15.4,78,30.31,10.0,Calm,Calm,-,N/A,,Clear,0,2012-12-04 04:35:00
9:55 PM,20.7,14.7,78,30.30,10.0,Calm,Calm,-,N/A,,Clear,0,2012-12-04 04:55:00
10:15 PM,19.6,15.4,84,30.32,10.0,Calm,Calm,-,N/A,,Clear,0,2012-12-04 05:15:00
10:35 PM,18.5,14.0,83,30.33,10.0,Calm,Calm,-,N/A,,Clear,0,2012-12-04 05:35:00
10:55 PM,18.5,14.4,84,30.33,10.0,Calm,Calm,-,N/A,,Clear,0,2012-12-04 05:55:00
11:15 PM,18.7,14.5,84,30.34,10.0,Calm,Calm,-,N/A,,Clear,0,2012-12-04 06:15:00
11:35 PM,19.0,14.4,82,30.34,10.0,Calm,Calm,-,N/A,,Clear,0,2012-12-04 06:35:00
11:55 PM,17.2,14.5,89,30.34,10.0,Calm,Calm,-,N/A,,Clear,0,2012-12-04 06:55:00